createdAt,value
2022-12-03T00:01:34.100Z,-1.50
2022-12-03T00:06:36.014Z,-1.50
2022-12-03T00:11:37.810Z,-1.50
2022-12-03T00:16:39.627Z,-1.50
2022-12-03T00:21:41.433Z,-1.50
2022-12-03T00:26:43.240Z,-1.50
2022-12-03T00:31:45.710Z,-1.40
2022-12-03T00:36:48.407Z,-1.40
2022-12-03T00:41:50.218Z,-1.40
2022-12-03T00:46:53.051Z,-1.40
2022-12-03T00:51:54.930Z,-1.40
2022-12-03T00:56:56.729Z,-1.40
2022-12-03T01:01:58.595Z,-1.40
2022-12-03T01:07:01.169Z,-1.40
2022-12-03T01:12:03.158Z,-1.40
2022-12-03T01:17:05.060Z,-1.40
2022-12-03T01:22:07.760Z,-1.40
2022-12-03T01:27:09.574Z,-1.40
2022-12-03T01:32:17.286Z,-1.40
2022-12-03T01:37:21.561Z,-1.40
2022-12-03T01:42:33.212Z,-1.40
2022-12-03T01:47:37.425Z,-1.40
2022-12-03T01:52:40.097Z,-1.40
2022-12-03T01:57:45.915Z,-1.40
2022-12-03T02:02:52.618Z,-1.40
2022-12-03T02:07:55.363Z,-1.40
2022-12-03T02:13:05.651Z,-1.20
2022-12-03T02:18:08.855Z,-1.30
2022-12-03T02:23:26.092Z,-1.30
2022-12-03T02:28:27.995Z,-1.40
2022-12-03T02:33:29.794Z,-1.30
2022-12-03T02:38:32.694Z,-1.40
2022-12-03T02:43:34.620Z,-1.40
2022-12-03T02:48:39.948Z,-1.40
2022-12-03T02:53:46.123Z,-1.30
2022-12-03T02:58:52.215Z,-1.30
2022-12-03T03:03:54.639Z,-1.30
2022-12-03T03:08:57.814Z,-1.30
2022-12-03T03:14:02.099Z,-1.30
2022-12-03T03:19:03.990Z,-1.30
2022-12-03T03:24:22.135Z,-1.30
2022-12-03T03:29:24.136Z,-1.30
2022-12-03T03:34:26.247Z,-1.30
2022-12-03T03:39:28.097Z,-1.30
2022-12-03T03:44:30.021Z,-1.30
2022-12-03T03:49:32.220Z,-1.30
2022-12-03T03:54:34.753Z,-1.40
2022-12-03T03:59:36.585Z,-1.30
2022-12-03T04:04:38.418Z,-1.30
2022-12-03T04:09:40.277Z,-1.30
2022-12-03T04:14:42.069Z,-1.40
2022-12-03T04:19:43.990Z,-1.30
2022-12-03T04:24:45.834Z,-1.30
2022-12-03T04:29:47.609Z,-1.40
2022-12-03T04:35:08.012Z,-1.30
2022-12-03T04:40:29.996Z,-1.30
2022-12-03T04:45:31.857Z,-1.40
2022-12-03T04:50:33.712Z,-1.40
2022-12-03T04:55:35.518Z,-1.30
2022-12-03T05:00:37.342Z,-1.40
2022-12-03T05:05:39.158Z,-1.40
2022-12-03T05:10:40.932Z,-1.50
2022-12-03T05:15:42.729Z,-1.40
2022-12-03T05:20:49.807Z,-1.40
2022-12-03T05:25:54.786Z,-1.40
2022-12-03T05:30:56.627Z,-1.40
2022-12-03T05:35:58.547Z,-1.40
2022-12-03T05:41:00.501Z,-1.40
2022-12-03T05:46:02.402Z,-1.50
2022-12-03T05:51:05.031Z,-1.50
2022-12-03T05:56:07.115Z,-1.40
2022-12-03T06:01:08.954Z,-1.40
2022-12-03T06:06:10.781Z,-1.40
2022-12-03T06:11:12.646Z,-1.40
2022-12-03T06:16:14.578Z,-1.50
2022-12-03T06:21:16.461Z,-1.40
2022-12-03T06:26:18.457Z,-1.50
2022-12-03T06:31:20.395Z,-1.50
2022-12-03T06:36:23.451Z,-1.40
2022-12-03T06:41:25.494Z,-1.40
2022-12-03T06:46:27.360Z,-1.40
2022-12-03T06:51:29.216Z,-1.40
2022-12-03T06:56:36.749Z,-1.30
2022-12-03T07:01:40.031Z,-1.30
2022-12-03T07:06:41.969Z,-1.40
2022-12-03T07:11:43.804Z,-1.30
2022-12-03T07:16:45.724Z,-1.20
2022-12-03T07:21:47.542Z,-1.10
2022-12-03T07:26:49.338Z,-1.00
2022-12-03T07:31:51.394Z,-0.90
2022-12-03T07:36:53.353Z,-1.00
2022-12-03T07:41:55.153Z,-1.10
2022-12-03T07:46:57.086Z,-1.10
2022-12-03T07:51:59.306Z,-1.20
2022-12-03T07:57:01.877Z,-1.10
2022-12-03T08:02:04.022Z,-1.10
2022-12-03T08:07:06.291Z,-1.10
2022-12-03T08:12:16.779Z,-1.10
2022-12-03T08:17:19.833Z,-1.00
2022-12-03T08:22:22.314Z,-0.80
2022-12-03T08:27:24.190Z,-1.00
2022-12-03T08:32:26.130Z,-1.00
2022-12-03T08:37:29.700Z,-0.90
2022-12-03T08:42:42.147Z,-1.00
2022-12-03T08:47:44.318Z,-1.00
2022-12-03T08:52:46.122Z,-1.00
2022-12-03T08:57:47.940Z,-0.90
2022-12-03T09:02:52.410Z,-0.80
2022-12-03T09:07:54.260Z,-0.80
2022-12-03T09:12:56.675Z,-0.80
2022-12-03T09:17:58.503Z,-0.80
2022-12-03T09:23:00.613Z,-0.80
2022-12-03T09:28:02.864Z,-0.70
2022-12-03T09:33:04.667Z,-0.80
2022-12-03T09:38:08.010Z,-0.70
2022-12-03T09:43:10.847Z,-0.70
2022-12-03T09:48:15.403Z,-0.70
2022-12-03T09:53:20.378Z,-0.80
2022-12-03T09:58:23.101Z,-0.80
2022-12-03T10:03:30.277Z,-0.60
2022-12-03T10:08:32.927Z,-0.60
2022-12-03T10:13:37.274Z,-0.50
2022-12-03T10:18:54.185Z,-0.60
2022-12-03T10:24:29.141Z,-0.70
2022-12-03T10:29:35.761Z,-0.60
2022-12-03T10:34:42.291Z,-0.50
2022-12-03T10:40:09.678Z,-0.50
2022-12-03T10:45:25.299Z,-0.50
2022-12-03T10:50:27.163Z,-0.60
2022-12-03T10:55:37.590Z,-0.70
2022-12-03T11:00:39.413Z,-0.60
2022-12-03T11:05:41.302Z,-0.60
2022-12-03T11:10:43.244Z,-0.60
2022-12-03T11:15:45.585Z,-0.70
2022-12-03T11:20:47.378Z,-0.60
2022-12-03T11:25:50.577Z,-0.60
2022-12-03T11:30:53.498Z,-0.80
2022-12-03T11:36:04.284Z,-0.70
2022-12-03T11:41:28.602Z,-0.70
2022-12-03T11:46:36.401Z,-0.60
2022-12-03T11:51:39.198Z,-0.60
2022-12-03T11:56:45.417Z,-0.80
2022-12-03T12:01:47.742Z,-0.80
2022-12-03T12:06:53.294Z,-0.80
2022-12-03T12:11:55.453Z,-0.80
2022-12-03T12:16:58.457Z,-0.70
2022-12-03T12:22:14.242Z,-0.70
2022-12-03T12:27:35.579Z,-0.80
2022-12-03T12:33:19.854Z,-0.90
2022-12-03T12:38:22.984Z,-0.80
2022-12-03T12:43:26.867Z,-0.70
2022-12-03T12:48:33.922Z,-0.80
2022-12-03T12:53:38.210Z,-0.80
2022-12-03T12:58:40.561Z,-0.70
2022-12-03T13:03:42.412Z,-0.70
2022-12-03T13:08:46.906Z,-0.70
2022-12-03T13:13:48.694Z,-0.80
2022-12-03T13:18:55.494Z,-0.60
2022-12-03T13:23:57.722Z,-0.80
2022-12-03T13:29:02.517Z,-0.70
2022-12-03T13:34:14.536Z,-0.70
2022-12-03T13:39:21.427Z,-0.80
2022-12-03T13:44:24.272Z,-0.80
2022-12-03T13:49:26.089Z,-0.70
2022-12-03T13:54:31.279Z,-0.80
2022-12-03T13:59:33.115Z,-0.90
2022-12-03T14:04:35.019Z,-0.90
2022-12-03T14:09:36.842Z,-0.90
2022-12-03T14:14:38.646Z,-0.90
2022-12-03T14:19:40.495Z,-0.90
2022-12-03T14:24:42.329Z,-0.90
2022-12-03T14:29:44.135Z,-0.90
2022-12-03T14:34:46.005Z,-1.00
2022-12-03T14:39:47.860Z,-0.90
2022-12-03T14:44:51.174Z,-0.90
2022-12-03T14:49:53.405Z,-1.00
2022-12-03T14:54:55.326Z,-1.00
2022-12-03T14:59:57.463Z,-1.00
2022-12-03T15:04:59.401Z,-1.00
2022-12-03T15:10:01.237Z,-1.00
2022-12-03T15:15:03.586Z,-1.00
2022-12-03T15:20:06.170Z,-1.00
2022-12-03T15:25:08.554Z,-1.00
2022-12-03T15:30:10.444Z,-1.00
2022-12-03T15:35:17.783Z,-1.00
2022-12-03T15:40:19.815Z,-1.00
2022-12-03T15:45:21.651Z,-1.00
2022-12-03T15:50:23.546Z,-0.90
2022-12-03T15:55:25.400Z,-0.90
2022-12-03T16:00:27.227Z,-0.90
2022-12-03T16:05:29.339Z,-1.00
2022-12-03T16:10:31.218Z,-1.00
2022-12-03T16:15:35.132Z,-1.00
2022-12-03T16:20:36.982Z,-1.00
2022-12-03T16:25:38.790Z,-1.00
2022-12-03T16:30:42.425Z,-0.90
2022-12-03T16:35:44.294Z,-0.90
2022-12-03T16:40:46.079Z,-0.80
2022-12-03T16:46:19.912Z,-0.80
2022-12-03T16:51:23.373Z,-0.80
2022-12-03T16:56:25.440Z,-0.70
2022-12-03T17:01:27.281Z,-0.70
2022-12-03T17:06:29.108Z,-0.70
2022-12-03T17:11:30.938Z,-0.60
2022-12-03T17:16:32.809Z,-0.50
2022-12-03T17:21:35.223Z,-0.60
2022-12-03T17:26:37.211Z,-0.60
2022-12-03T17:31:42.123Z,-0.50
2022-12-03T17:36:44.638Z,-0.50
2022-12-03T17:41:46.435Z,-0.50
2022-12-03T17:46:49.409Z,-0.50
2022-12-03T17:51:51.308Z,-0.50
2022-12-03T17:56:53.302Z,-0.40
2022-12-03T18:01:55.153Z,-0.40
2022-12-03T18:07:00.839Z,-0.40
2022-12-03T18:12:04.538Z,-0.40
2022-12-03T18:17:06.338Z,-0.40
2022-12-03T18:22:08.188Z,-0.30
2022-12-03T18:27:10.302Z,-0.30
2022-12-03T18:32:27.880Z,-0.30
2022-12-03T18:37:32.683Z,-0.20
2022-12-03T18:42:34.511Z,-0.30
2022-12-03T18:47:38.186Z,-0.20
2022-12-03T18:52:40.658Z,-0.20
2022-12-03T18:57:42.529Z,-0.20
2022-12-03T19:08:14.146Z,-0.20
2022-12-03T19:13:16.013Z,-0.10
2022-12-03T19:18:17.968Z,-0.20
2022-12-03T19:23:19.816Z,-0.20
2022-12-03T19:28:21.598Z,-0.20
2022-12-03T19:33:28.232Z,-0.20
2022-12-03T19:38:31.006Z,-0.20
2022-12-03T19:43:34.887Z,-0.10
2022-12-03T19:48:38.101Z,-0.20
2022-12-03T19:53:41.423Z,-0.20
2022-12-03T19:58:45.289Z,-0.20
2022-12-03T20:03:49.167Z,-0.20
2022-12-03T20:08:55.555Z,-0.20
2022-12-03T20:14:06.163Z,-0.20
2022-12-03T20:19:10.726Z,-0.10
2022-12-03T20:24:17.950Z,-0.10
2022-12-03T20:29:20.794Z,-0.10
2022-12-03T20:34:22.651Z,-0.10
2022-12-03T20:39:24.529Z,-0.10
2022-12-03T20:44:26.333Z,-0.10
2022-12-03T20:49:28.155Z,-0.10
2022-12-03T20:54:30.075Z,-0.10
2022-12-03T20:59:32.924Z,-0.10
2022-12-03T21:04:34.851Z,-0.10
2022-12-03T21:09:36.778Z,-0.10
2022-12-03T21:14:38.593Z,-0.10
2022-12-03T21:19:40.464Z,-0.10
2022-12-03T21:24:42.867Z,-0.10
2022-12-03T21:29:44.733Z,-0.10
2022-12-03T21:34:46.613Z,-0.10
2022-12-03T21:39:48.692Z,-0.10
2022-12-03T21:44:50.547Z,-0.10
2022-12-03T21:49:52.553Z,-0.10
2022-12-03T21:54:55.152Z,-0.10
2022-12-03T21:59:57.440Z,0.00
2022-12-03T22:04:59.454Z,0.00
2022-12-03T22:10:01.596Z,0.00
2022-12-03T22:15:04.165Z,-0.10
2022-12-03T22:20:07.189Z,0.00
2022-12-03T22:25:09.401Z,-0.10
2022-12-03T22:30:11.519Z,-0.10
2022-12-03T22:35:13.344Z,-0.10
2022-12-03T22:40:15.427Z,-0.10
2022-12-03T22:45:17.265Z,-0.10
2022-12-03T22:50:19.127Z,-0.10
2022-12-03T22:55:20.930Z,-0.10
2022-12-03T23:00:37.295Z,-0.10
2022-12-03T23:05:39.467Z,-0.10
2022-12-03T23:10:43.799Z,-0.10
2022-12-03T23:15:48.261Z,-0.10
2022-12-03T23:20:52.391Z,-0.10
2022-12-03T23:26:05.327Z,-0.10
2022-12-03T23:31:23.527Z,-0.10
2022-12-03T23:36:27.144Z,-0.10
2022-12-03T23:41:28.955Z,-0.10
2022-12-03T23:46:30.827Z,-0.10
2022-12-03T23:51:33.042Z,-0.10
2022-12-03T23:56:34.830Z,0.00
